Time;durP1;ratioP1;P1;durP2;ratioP2;P2;SDS_P1;SDS_P2;PMS_P1;PMS_P2;Temp;Humidity;BMP_temperature;BMP_pressure;BME280_temperature;BME280_humidity;BME280_pressure;Samples;Min_cycle;Max_cycle;Signal;HPM_P1;HPM_P2
2023/04/17 03:03:40;;;;;;;;;;;15.80;53.80;;;;;;5015171;28;45706;-58
2023/04/17 03:06:06;;;;;;;;;;;15.80;53.80;;;;;;5042895;28;45319;-57
2023/04/17 03:08:34;;;;;;;;;;;15.80;53.70;;;;;;5051038;28;44968;-58
2023/04/17 03:11:01;;;;;;;;;;;15.80;53.70;;;;;;4996987;28;44680;-56
2023/04/17 03:13:26;;;;;;;;;;;15.80;53.80;;;;;;5048848;28;45467;-57
2023/04/17 03:15:51;;;;;;;;;;;15.80;53.80;;;;;;5039517;28;45822;-57
2023/04/17 03:18:17;;;;;;;;;;;15.80;53.80;;;;;;5055989;28;45905;-58
2023/04/17 03:20:42;;;;;;;;;;;15.80;53.80;;;;;;5043215;28;45360;-56
2023/04/17 03:23:08;;;;;;;;;;;15.80;53.80;;;;;;5046047;28;46959;-55
2023/04/17 03:25:33;;;;;;;;;;;15.80;53.70;;;;;;5041010;28;45185;-56
2023/04/17 03:27:59;;;;;;;;;;;15.80;53.80;;;;;;5051934;28;45926;-58
2023/04/17 03:30:24;;;;;;;;;;;15.80;53.80;;;;;;5041570;28;45274;-58
2023/04/17 03:32:50;;;;;;;;;;;15.80;53.70;;;;;;5041803;28;47000;-57
2023/04/17 03:35:15;;;;;;;;;;;15.80;53.70;;;;;;5039679;28;45251;-58
2023/04/17 03:37:41;;;;;;;;;;;15.80;53.70;;;;;;5053371;28;44907;-58
2023/04/17 03:40:06;;;;;;;;;;;15.80;53.70;;;;;;5046261;28;46148;-59
2023/04/17 03:42:32;;;;;;;;;;;15.80;53.80;;;;;;5046814;28;45869;-57
2023/04/17 03:44:57;;;;;;;;;;;15.80;53.80;;;;;;5030431;28;45837;-58
2023/04/17 03:47:23;;;;;;;;;;;15.80;53.80;;;;;;5041904;28;45442;-57
2023/04/17 03:49:48;;;;;;;;;;;15.80;54.40;;;;;;5034575;28;45344;-58
2023/04/17 03:52:14;;;;;;;;;;;15.80;54.40;;;;;;5046075;28;45880;-55
2023/04/17 03:54:39;;;;;;;;;;;15.80;53.80;;;;;;5028958;28;45380;-57
2023/04/17 03:57:05;;;;;;;;;;;15.80;53.80;;;;;;5041477;28;44842;-56
2023/04/17 03:59:30;;;;;;;;;;;15.80;53.80;;;;;;5053277;28;45332;-55
2023/04/17 04:01:56;;;;;;;;;;;15.80;53.80;;;;;;5034871;28;46147;-55
2023/04/17 04:04:21;;;;;;;;;;;15.80;53.80;;;;;;5050508;28;45217;-57
2023/04/17 04:06:48;;;;;;;;;;;15.80;53.80;;;;;;5029023;28;45414;-60
2023/04/17 04:09:13;;;;;;;;;;;15.80;53.80;;;;;;5042948;28;45652;-53
2023/04/17 04:11:39;;;;;;;;;;;15.80;53.90;;;;;;5039463;28;46519;-56
2023/04/17 04:14:04;;;;;;;;;;;15.80;53.80;;;;;;5051762;28;45348;-58
2023/04/17 04:16:30;;;;;;;;;;;15.80;53.90;;;;;;5002476;28;45801;-58
2023/04/17 04:18:55;;;;;;;;;;;15.70;53.80;;;;;;5024564;28;45360;-55
2023/04/17 04:21:22;;;;;;;;;;;15.80;53.90;;;;;;5041654;28;46128;-56
2023/04/17 04:23:48;;;;;;;;;;;15.80;53.90;;;;;;5027636;28;45246;-58
2023/04/17 04:26:15;;;;;;;;;;;15.80;53.80;;;;;;5039175;28;45273;-57
2023/04/17 04:28:42;;;;;;;;;;;15.80;53.90;;;;;;5026781;28;45423;-57
2023/04/17 04:31:08;;;;;;;;;;;15.80;53.90;;;;;;5033988;28;45857;-57
2023/04/17 04:33:34;;;;;;;;;;;15.70;53.80;;;;;;5023521;28;45246;-55
2023/04/17 04:36:00;;;;;;;;;;;15.80;53.80;;;;;;5036024;28;45249;-57
2023/04/17 04:38:29;;;;;;;;;;;15.80;53.80;;;;;;5028064;28;45288;-57
2023/04/17 04:41:04;;;;;;;;;;;15.80;53.90;;;;;;5017132;28;46538;-58
2023/04/17 04:43:32;;;;;;;;;;;15.80;53.80;;;;;;5043991;28;44757;-57
2023/04/17 04:45:57;;;;;;;;;;;15.70;53.80;;;;;;5035044;28;45294;-58
2023/04/17 04:48:23;;;;;;;;;;;15.70;53.80;;;;;;5041941;28;45552;-57
2023/04/17 04:50:49;;;;;;;;;;;15.80;53.80;;;;;;5038341;28;45463;-61
2023/04/17 04:53:14;;;;;;;;;;;15.80;53.90;;;;;;5024664;28;45668;-60
2023/04/17 04:55:39;;;;;;;;;;;15.80;53.80;;;;;;5043807;28;45440;-56
2023/04/17 04:58:05;;;;;;;;;;;15.80;53.90;;;;;;5046579;28;45802;-55
2023/04/17 05:00:31;;;;;;;;;;;15.80;53.90;;;;;;5019761;28;46073;-56
2023/04/17 05:02:56;;;;;;;;;;;15.80;53.90;;;;;;5038976;28;45475;-58
2023/04/17 05:05:22;;;;;;;;;;;15.70;53.80;;;;;;5034986;28;45570;-57
2023/04/17 05:07:47;;;;;;;;;;;15.80;53.90;;;;;;5042388;28;45365;-58
2023/04/17 05:10:13;;;;;;;;;;;15.70;53.80;;;;;;5034884;28;46057;-61
2023/04/17 05:12:39;;;;;;;;;;;15.80;53.80;;;;;;5044321;28;45572;-58
2023/04/17 05:15:05;;;;;;;;;;;15.70;53.80;;;;;;5037075;28;45202;-61
2023/04/17 05:17:31;;;;;;;;;;;15.70;53.80;;;;;;5025174;28;46235;-58
2023/04/17 05:19:56;;;;;;;;;;;15.70;53.80;;;;;;5043199;28;47255;-57
2023/04/17 05:22:22;;;;;;;;;;;15.70;53.80;;;;;;5025193;28;45258;-57
2023/04/17 05:24:47;;;;;;;;;;;15.70;53.90;;;;;;5053791;28;44808;-57
2023/04/17 05:27:13;;;;;;;;;;;15.70;53.90;;;;;;5046197;28;45179;-57
2023/04/17 05:29:38;;;;;;;;;;;15.70;53.80;;;;;;5048485;28;46023;-60
2023/04/17 05:32:04;;;;;;;;;;;15.70;53.90;;;;;;5039258;28;45197;-59
2023/04/17 05:34:29;;;;;;;;;;;15.70;53.90;;;;;;5028819;28;45918;-57
2023/04/17 05:36:55;;;;;;;;;;;15.70;53.80;;;;;;5044864;28;45886;-60
2023/04/17 05:39:20;;;;;;;;;;;15.70;53.80;;;;;;5034020;28;45625;-58
2023/04/17 05:41:46;;;;;;;;;;;15.70;53.90;;;;;;5044931;28;45249;-55
2023/04/17 05:44:11;;;;;;;;;;;15.70;53.80;;;;;;5029065;28;45285;-56
2023/04/17 05:46:36;;;;;;;;;;;15.70;53.90;;;;;;5040004;28;45344;-58
2023/04/17 05:49:02;;;;;;;;;;;15.70;53.90;;;;;;5046906;28;45618;-58
2023/04/17 05:51:27;;;;;;;;;;;15.70;53.90;;;;;;5042804;28;45254;-59
2023/04/17 05:53:53;;;;;;;;;;;15.70;53.80;;;;;;5041492;28;44715;-58
2023/04/17 05:56:18;;;;;;;;;;;15.70;53.90;;;;;;5046153;28;45363;-59
2023/04/17 05:58:44;;;;;;;;;;;15.70;53.90;;;;;;5049527;28;45974;-57
2023/04/17 06:01:11;;;;;;;;;;;15.70;53.90;;;;;;5041017;28;45133;-58
2023/04/17 06:03:37;;;;;;;;;;;15.80;53.90;;;;;;5051331;28;45281;-57
2023/04/17 06:06:02;;;;;;;;;;;15.80;53.90;;;;;;5043679;28;45239;-56
2023/04/17 06:08:28;;;;;;;;;;;15.90;54.00;;;;;;5054268;28;45220;-54
2023/04/17 06:10:55;;;;;;;;;;;16.00;53.80;;;;;;5039816;28;45237;-57
2023/04/17 06:13:20;;;;;;;;;;;16.20;53.50;;;;;;5051519;28;45401;-60
2023/04/17 06:15:46;;;;;;;;;;;16.40;53.20;;;;;;5047076;28;45268;-57
2023/04/17 06:18:14;;;;;;;;;;;16.60;53.40;;;;;;5035641;28;45292;-58
2023/04/17 06:20:40;;;;;;;;;;;16.80;52.60;;;;;;5048399;28;45202;-58
2023/04/17 06:23:05;;;;;;;;;;;17.00;52.30;;;;;;5051507;28;44997;-56
2023/04/17 06:25:31;;;;;;;;;;;17.20;52.00;;;;;;5045226;28;45198;-59
2023/04/17 06:27:56;;;;;;;;;;;17.40;51.80;;;;;;5038394;28;47584;-54
2023/04/17 06:30:22;;;;;;;;;;;17.60;51.60;;;;;;5045714;28;45230;-57
2023/04/17 06:32:47;;;;;;;;;;;17.80;51.40;;;;;;5050595;28;46147;-57
2023/04/17 06:35:13;;;;;;;;;;;17.90;51.20;;;;;;5032866;28;45244;-61
2023/04/17 06:37:38;;;;;;;;;;;18.10;51.20;;;;;;5050383;28;46064;-57
2023/04/17 06:40:04;;;;;;;;;;;18.20;51.50;;;;;;5047310;28;45564;-62
2023/04/17 06:42:32;;;;;;;;;;;18.30;51.00;;;;;;5016557;28;45287;-61
2023/04/17 06:44:58;;;;;;;;;;;18.40;50.80;;;;;;5055569;28;44694;-59
2023/04/17 06:47:23;;;;;;;;;;;18.60;50.70;;;;;;5046591;28;46051;-60
2023/04/17 06:49:49;;;;;;;;;;;18.70;50.70;;;;;;5037277;28;45135;-58
2023/04/17 06:52:14;;;;;;;;;;;18.80;50.50;;;;;;5032029;28;45719;-60
2023/04/17 06:54:40;;;;;;;;;;;18.90;50.50;;;;;;5053124;28;45198;-60
2023/04/17 06:57:08;;;;;;;;;;;19.00;50.40;;;;;;5047873;28;46382;-58
2023/04/17 06:59:34;;;;;;;;;;;19.20;50.30;;;;;;5055454;28;45616;-59
2023/04/17 07:02:02;;;;;;;;;;;19.30;50.20;;;;;;5027459;28;45389;-61
2023/04/17 07:04:31;;;;;;;;;;;19.40;50.10;;;;;;5036788;28;45161;-61
2023/04/17 07:06:56;;;;;;;;;;;19.50;49.90;;;;;;5048586;28;46516;-60
2023/04/17 07:09:22;;;;;;;;;;;19.60;49.90;;;;;;5053586;28;45379;-58
2023/04/17 07:11:48;;;;;;;;;;;19.70;49.90;;;;;;5027843;28;45601;-58
2023/04/17 07:14:13;;;;;;;;;;;19.80;49.80;;;;;;5055017;28;44695;-59
2023/04/17 07:16:39;;;;;;;;;;;19.80;49.80;;;;;;5044461;28;46988;-60
2023/04/17 07:19:04;;;;;;;;;;;19.90;49.70;;;;;;5049804;28;45316;-62
2023/04/17 07:21:31;;;;;;;;;;;20.00;49.60;;;;;;5028967;28;45434;-60
2023/04/17 07:23:56;;;;;;;;;;;20.10;49.60;;;;;;5053929;28;45320;-62
2023/04/17 07:26:22;;;;;;;;;;;20.20;49.50;;;;;;5032245;28;45053;-61
2023/04/17 07:28:47;;;;;;;;;;;20.20;49.50;;;;;;5053317;28;44700;-61
2023/04/17 07:31:13;;;;;;;;;;;20.30;49.50;;;;;;5041558;28;45281;-61
2023/04/17 07:33:38;;;;;;;;;;;20.30;49.30;;;;;;5051197;28;45317;-60
2023/04/17 07:36:04;;;;;;;;;;;20.40;49.30;;;;;;5028154;28;47263;-62
2023/04/17 07:38:30;;;;;;;;;;;20.50;49.20;;;;;;5030518;28;45152;-59
2023/04/17 07:40:56;;;;;;;;;;;20.60;49.20;;;;;;5027448;28;45358;-59
2023/04/17 07:43:21;;;;;;;;;;;20.60;49.20;;;;;;5050705;28;45274;-61
2023/04/17 07:45:47;;;;;;;;;;;20.70;49.20;;;;;;5044110;28;44913;-59
2023/04/17 07:48:13;;;;;;;;;;;20.80;49.10;;;;;;5047405;28;45042;-60
2023/04/17 07:50:39;;;;;;;;;;;20.90;49.10;;;;;;5028287;28;46785;-59
2023/04/17 07:53:04;;;;;;;;;;;20.90;49.00;;;;;;5053081;28;46225;-63
2023/04/17 07:55:30;;;;;;;;;;;21.00;48.90;;;;;;5044213;28;45595;-60
2023/04/17 07:57:55;;;;;;;0.32;0.32;;;21.00;48.90;;;;;;5047343;28;45245;-60
2023/04/17 08:00:22;;;;;;;4.28;0.52;;;21.10;49.40;;;;;;5026569;28;45404;-60
2023/04/17 08:02:48;;;;;;;0.55;0.52;;;21.20;49.30;;;;;;5047469;28;45401;-60
2023/04/17 08:05:13;;;;;;;2.30;0.70;;;21.30;49.30;;;;;;5045353;28;47146;-63
2023/04/17 08:07:40;;;;;;;1.05;0.50;;;21.30;49.20;;;;;;5052306;28;45109;-60
2023/04/17 08:10:06;;;;;;;0.85;0.50;;;21.40;49.10;;;;;;5049926;28;45169;-63
2023/04/17 08:12:32;;;;;;;0.77;0.57;;;21.50;49.10;;;;;;5002581;28;44775;-61
2023/04/17 08:14:57;;;;;;;0.50;0.50;;;21.50;49.10;;;;;;5018138;28;47031;-61
2023/04/17 08:17:24;;;;;;;2.20;0.63;;;21.60;49.00;;;;;;5042769;28;44995;-59
2023/04/17 08:19:53;;;;;;;0.47;0.47;;;21.70;48.90;;;;;;5050622;28;45090;-59
2023/04/17 08:22:23;;;;;;;0.52;0.52;;;21.80;48.80;;;;;;5024492;28;44935;-63
2023/04/17 08:24:49;;;;;;;0.75;0.55;;;21.80;48.70;;;;;;5049813;28;45354;-60
2023/04/17 08:27:15;;;;;;;1.17;0.40;;;21.90;48.70;;;;;;5042132;28;44760;-61
2023/04/17 08:29:42;;;;;;;1.63;0.63;;;21.90;48.60;;;;;;5031980;28;45190;-58
2023/04/17 08:32:08;;;;;;;0.50;0.50;;;21.90;48.60;;;;;;5024300;28;45353;-59
2023/04/17 08:34:34;;;;;;;0.50;0.40;;;21.90;48.60;;;;;;5035382;28;46085;-61
2023/04/17 08:37:00;;;;;;;0.85;0.50;;;22.00;48.60;;;;;;5045578;28;45036;-59
2023/04/17 08:39:26;;;;;;;4.55;0.65;;;22.00;48.60;;;;;;5046131;28;45773;-58
2023/04/17 08:42:01;;;;;;;0.50;0.50;;;22.10;48.60;;;;;;5043858;28;45503;-60
2023/04/17 08:44:27;;;;;;;0.52;0.50;;;22.10;48.40;;;;;;5030844;28;46237;-59
2023/04/17 08:46:56;;;;;;;0.75;0.63;;;22.10;48.50;;;;;;5000290;28;45129;-59
2023/04/17 08:49:21;;;;;;;0.50;0.40;;;22.10;48.40;;;;;;5031909;28;45387;-59
2023/04/17 08:51:47;;;;;;;0.80;0.50;;;22.20;48.50;;;;;;5017113;28;46002;-60
2023/04/17 08:54:13;;;;;;;3.50;0.60;;;22.20;48.50;;;;;;5047880;28;45130;-60
2023/04/17 08:56:38;;;;;;;0.40;0.40;;;22.30;48.40;;;;;;5029589;28;45300;-59
2023/04/17 08:59:04;;;;;;;2.30;0.98;;;22.30;48.40;;;;;;5049606;28;45348;-59
2023/04/17 09:01:29;;;;;;;0.77;0.40;;;22.40;48.40;;;;;;5018408;28;45832;-62
2023/04/17 09:03:56;;;;;;;1.23;0.60;;;22.40;48.30;;;;;;5047604;28;46289;-60
2023/04/17 09:06:21;;;;;;;1.52;0.60;;;22.50;48.30;;;;;;5022546;28;45169;-60
2023/04/17 09:09:00;;;;;;;1.58;0.47;;;22.60;48.20;;;;;;5047925;28;45625;-61
2023/04/17 09:11:26;;;;;;;1.67;0.40;;;22.60;47.80;;;;;;5025022;28;45243;-59
2023/04/17 09:13:52;;;;;;;1.05;0.43;;;22.70;48.00;;;;;;5052121;28;46089;-59
2023/04/17 09:16:20;;;;;;;0.50;0.50;;;22.70;47.90;;;;;;5025374;28;45316;-62
2023/04/17 09:18:46;;;;;;;0.88;0.50;;;22.70;47.80;;;;;;5030396;28;45388;-62
2023/04/17 09:21:13;;;;;;;1.00;0.77;;;22.80;47.90;;;;;;5021759;28;45073;-59
2023/04/17 09:24:06;;;;;;;1.10;0.47;;;22.80;47.80;;;;;;5035946;28;45851;-61
2023/04/17 09:26:32;;;;;;;0.77;0.50;;;22.80;47.30;;;;;;5047078;28;44980;-61
2023/04/17 09:29:03;;;;;;;2.50;0.50;;;22.80;47.80;;;;;;5035527;28;44752;-62
2023/04/17 09:31:30;;;;;;;0.98;0.65;;;22.90;47.70;;;;;;5045025;28;45470;-60
2023/04/17 09:34:07;;;;;;;0.80;0.60;;;22.90;47.70;;;;;;5022124;28;45977;-59
2023/04/17 09:36:33;;;;;;;2.50;0.45;;;22.90;47.60;;;;;;5049492;28;45425;-59
2023/04/17 09:39:01;;;;;;;1.20;0.57;;;22.90;47.70;;;;;;5017854;28;45275;-62
2023/04/17 09:41:31;;;;;;;1.85;0.55;;;23.00;47.70;;;;;;5026393;28;45900;-63
2023/04/17 09:44:04;;;;;;;4.53;0.50;;;23.00;47.60;;;;;;5050193;28;45508;-61
2023/04/17 09:46:36;;;;;;;0.68;0.40;;;23.00;47.80;;;;;;5011761;28;45363;-62
2023/04/17 09:49:26;;;;;;;0.80;0.40;;;23.00;47.70;;;;;;5047579;28;45485;-62
2023/04/17 09:51:52;;;;;;;0.82;0.70;;;23.00;47.50;;;;;;5048342;28;45173;-62
2023/04/17 09:54:18;;;;;;;0.40;0.40;;;23.00;47.60;;;;;;5014782;28;47264;-62
2023/04/17 09:56:44;;;;;;;2.15;0.40;;;23.00;47.60;;;;;;5030639;28;45453;-60
2023/04/17 09:59:10;;;;;;;0.60;0.45;;;23.10;47.60;;;;;;5053511;28;45186;-60
2023/04/17 10:01:36;;;;;;;0.90;0.60;;;23.10;47.60;;;;;;5025546;28;45318;-61
2023/04/17 10:04:02;;;;;;;1.88;0.57;;;23.20;47.60;;;;;;5037753;28;46251;-61
2023/04/17 10:06:29;;;;;;;0.63;0.47;;;23.20;47.60;;;;;;5047533;28;45293;-61
2023/04/17 10:08:55;;;;;;;1.52;0.47;;;23.20;47.50;;;;;;5034041;28;45239;-62
2023/04/17 10:11:22;;;;;;;2.47;0.47;;;23.30;47.50;;;;;;5026457;28;45229;-60
2023/04/17 10:14:03;;;;;;;3.05;0.40;;;23.40;47.40;;;;;;5022159;28;46278;-60
2023/04/17 10:16:38;;;;;;;0.75;0.60;;;23.40;47.30;;;;;;5012602;28;45562;-61
2023/04/17 10:19:24;;;;;;;1.75;0.70;;;23.40;47.00;;;;;;5015425;28;45554;-60
2023/04/17 10:22:26;;;;;;;0.77;0.47;;;23.40;46.80;;;;;;5046047;28;45438;-60
2023/04/17 10:25:10;;;;;;;0.30;0.30;;;23.50;46.80;;;;;;4990390;28;46862;-60
2023/04/17 10:27:36;;;;;;;1.05;0.50;;;23.40;46.80;;;;;;5042989;28;45329;-61
2023/04/17 10:30:06;;;;;;;3.33;0.57;;;23.40;47.20;;;;;;5052503;28;45018;-61
2023/04/17 10:32:33;;;;;;;0.57;0.47;;;23.50;47.20;;;;;;5012306;28;45161;-58
2023/04/17 10:35:23;;;;;;;1.60;0.50;;;23.50;47.10;;;;;;5049093;28;46999;-60
2023/04/17 10:37:51;;;;;;;0.40;0.40;;;23.40;47.10;;;;;;5027097;28;45245;-57
2023/04/17 10:40:21;;;;;;;0.65;0.40;;;23.50;47.10;;;;;;5030369;28;45277;-59
2023/04/17 10:43:12;;;;;;;0.93;0.40;;;23.50;47.10;;;;;;5035104;28;45463;-61
2023/04/17 10:46:00;;;;;;;1.15;0.63;;;23.50;46.70;;;;;;5026307;28;45638;-60
2023/04/17 10:48:41;;;;;;;0.40;0.40;;;23.50;46.70;;;;;;5048634;28;45295;-57
2023/04/17 10:51:26;;;;;;;0.73;0.65;;;23.50;46.80;;;;;;5029498;28;45448;-60
2023/04/17 10:53:55;;;;;;;0.70;0.40;;;23.60;46.80;;;;;;5047495;28;45284;-60
2023/04/17 10:56:25;;;;;;;1.08;0.43;;;23.50;46.90;;;;;;5030163;28;45268;-60
2023/04/17 10:59:07;;;;;;;1.40;0.60;;;23.60;47.00;;;;;;5049964;28;45328;-66
2023/04/17 11:01:39;;;;;;;1.20;0.60;;;23.60;46.90;;;;;;5022108;28;45281;-66
2023/04/17 11:04:05;;;;;;;1.35;0.40;;;23.50;46.80;;;;;;5020832;28;45076;-66
2023/04/17 11:06:31;;;;;;;0.63;0.47;;;23.50;47.10;;;;;;5027559;28;45712;-66
2023/04/17 11:08:58;;;;;;;1.42;0.40;;;23.40;47.20;;;;;;5031190;28;45403;-66
2023/04/17 11:11:24;;;;;;;1.15;0.55;;;23.40;47.30;;;;;;5031686;28;45466;-65
2023/04/17 11:13:50;;;;;;;0.45;0.45;;;23.30;47.40;;;;;;5049398;28;45256;-67
2023/04/17 11:16:15;;;;;;;0.80;0.50;;;23.20;47.40;;;;;;5008706;28;45255;-68
2023/04/17 11:18:42;;;;;;;0.32;0.32;;;23.20;47.50;;;;;;5052374;28;45683;-66
2023/04/17 11:21:14;;;;;;;1.35;0.35;;;23.10;47.50;;;;;;5027328;28;45324;-65
2023/04/17 11:23:40;;;;;;;0.30;0.30;;;23.10;47.60;;;;;;5026694;28;45135;-66
2023/04/17 11:26:08;;;;;;;1.65;0.70;;;23.00;47.60;;;;;;5017963;28;45853;-66
2023/04/17 11:28:38;;;;;;;1.15;0.40;;;23.00;47.70;;;;;;5036453;28;45136;-66
2023/04/17 11:31:03;;;;;;;1.77;0.50;;;22.90;47.80;;;;;;5036132;28;45092;-67
2023/04/17 11:33:35;;;;;;;0.73;0.55;;;22.90;47.90;;;;;;5034987;28;45297;-64
2023/04/17 11:36:01;;;;;;;2.42;0.70;;;22.80;47.90;;;;;;5049610;28;45214;-67
2023/04/17 11:38:26;;;;;;;0.65;0.57;;;22.80;48.00;;;;;;5029903;28;45310;-65
2023/04/17 11:40:53;;;;;;;1.05;0.47;;;22.80;48.10;;;;;;5044801;28;45247;-66
2023/04/17 11:43:20;;;;;;;0.68;0.60;;;22.70;48.10;;;;;;5036141;28;46517;-65
2023/04/17 11:45:47;;;;;;;0.50;0.50;;;22.60;48.20;;;;;;4990755;28;47205;-66
2023/04/17 11:48:14;;;;;;;1.83;0.50;;;22.60;48.20;;;;;;5029990;28;45140;-69
2023/04/17 11:50:41;;;;;;;0.63;0.50;;;22.60;48.30;;;;;;5013010;28;45345;-66
2023/04/17 11:53:07;;;;;;;0.50;0.50;;;22.50;48.30;;;;;;5030556;28;46173;-66
2023/04/17 11:55:33;;;;;;;0.80;0.50;;;22.50;48.40;;;;;;5006268;28;45504;-66
2023/04/17 11:58:04;;;;;;;1.17;0.50;;;22.50;48.50;;;;;;5029516;28;44771;-64
2023/04/17 12:00:30;;;;;;;0.82;0.60;;;22.40;48.50;;;;;;5020081;28;45348;-67
2023/04/17 12:02:59;;;;;;;0.50;0.50;;;22.40;48.60;;;;;;5015077;28;45363;-65
2023/04/17 12:05:25;;;;;;;0.60;0.52;;;22.40;48.60;;;;;;5024228;28;45299;-64
2023/04/17 12:08:04;;;;;;;1.95;0.80;;;22.40;48.70;;;;;;5015329;28;45232;-66
2023/04/17 12:10:40;;;;;;;0.90;0.50;;;22.30;48.70;;;;;;5027422;28;45286;-65
2023/04/17 12:13:06;;;;;;;0.70;0.70;;;22.30;48.80;;;;;;5026690;28;45556;-65
2023/04/17 12:15:32;;;;;;;1.50;0.63;;;22.20;48.80;;;;;;5032645;28;45635;-66
2023/04/17 12:17:58;;;;;;;0.70;0.60;;;22.20;48.80;;;;;;5000634;28;45775;-65
2023/04/17 12:20:23;;;;;;;0.75;0.70;;;22.20;48.90;;;;;;5043172;28;45215;-64
2023/04/17 12:22:49;;;;;;;0.75;0.55;;;22.10;48.80;;;;;;5046759;28;44784;-64
2023/04/17 12:25:14;;;;;;;2.85;0.50;;;22.10;48.90;;;;;;5043403;28;46568;-64
2023/04/17 12:27:40;;;;;;;0.77;0.50;;;22.10;49.60;;;;;;5029287;28;45149;-64
2023/04/17 12:30:10;;;;;;;1.00;0.57;;;22.10;49.00;;;;;;5026112;28;45398;-67
2023/04/17 12:32:36;;;;;;;1.48;0.80;;;22.10;49.10;;;;;;4991770;28;45234;-65
2023/04/17 12:35:03;;;;;;;0.50;0.50;;;22.00;49.10;;;;;;5030987;28;45869;-68
2023/04/17 12:37:28;;;;;;;2.15;0.60;;;22.00;49.20;;;;;;5010217;28;44724;-65
2023/04/17 12:39:54;;;;;;;1.27;0.60;;;22.00;49.20;;;;;;5047067;28;45842;-64
2023/04/17 12:42:19;;;;;;;0.57;0.50;;;21.90;49.20;;;;;;5040590;28;45213;-66
2023/04/17 12:44:45;;;;;;;0.73;0.40;;;21.90;49.20;;;;;;5034386;28;47199;-63
2023/04/17 12:47:11;;;;;;;0.73;0.70;;;21.90;49.30;;;;;;5037561;28;44680;-68
2023/04/17 12:49:36;;;;;;;2.65;0.40;;;21.90;49.40;;;;;;5048910;28;45503;-64
2023/04/17 12:52:02;;;;;;;0.60;0.60;;;21.90;49.50;;;;;;5040088;28;45114;-65
2023/04/17 12:54:28;;;;;;;0.70;0.60;;;21.80;49.50;;;;;;5048920;28;47392;-65
2023/04/17 12:56:53;;;;;;;1.55;0.52;;;21.80;49.50;;;;;;5013353;28;45583;-63
2023/04/17 12:59:19;;;;;;;0.70;0.68;;;21.80;49.50;;;;;;5034502;28;45370;-65
2023/04/17 13:01:45;;;;;;;0.82;0.40;;;21.70;49.50;;;;;;5005907;28;45458;-62
2023/04/17 13:04:11;;;;;;;0.50;0.50;;;21.70;49.50;;;;;;5029456;28;46031;-67
2023/04/17 13:06:37;;;;;;;0.52;0.52;;;21.70;49.60;;;;;;5023107;28;45685;-64
2023/04/17 13:09:03;;;;;;;1.52;0.70;;;21.70;49.60;;;;;;5045697;28;45436;-64
2023/04/17 13:11:29;;;;;;;0.63;0.43;;;21.70;49.70;;;;;;5046034;28;45284;-65
2023/04/17 13:13:54;;;;;;;0.80;0.40;;;21.70;49.70;;;;;;5030302;28;47109;-63
2023/04/17 13:16:20;;;;;;;0.75;0.50;;;21.60;49.70;;;;;;5021986;28;45261;-63
2023/04/17 13:18:45;;;;;;;0.73;0.50;;;21.60;49.70;;;;;;5043349;28;45318;-63
2023/04/17 13:21:11;;;;;;;0.55;0.55;;;21.60;49.70;;;;;;5043222;28;45114;-65
2023/04/17 13:23:37;;;;;;;1.95;0.70;;;21.60;49.80;;;;;;5027924;28;45962;-62
2023/04/17 13:26:02;;;;;;;2.67;0.50;;;21.60;49.90;;;;;;5024600;28;45382;-64
2023/04/17 13:28:28;;;;;;;1.50;0.73;;;21.50;49.90;;;;;;5044455;28;45260;-65
2023/04/17 13:30:53;;;;;;;0.70;0.60;;;21.50;50.00;;;;;;5019980;28;45949;-63
2023/04/17 13:33:19;;;;;;;0.77;0.68;;;21.50;50.00;;;;;;5042590;28;47070;-64
2023/04/17 13:35:44;;;;;;;0.80;0.60;;;21.50;50.00;;;;;;5043641;28;45664;-63
2023/04/17 13:38:10;;;;;;;1.00;0.60;;;21.50;50.00;;;;;;5047821;28;44774;-64
2023/04/17 13:40:37;;;;;;;0.82;0.55;;;21.40;50.00;;;;;;5023213;28;45352;-66
2023/04/17 13:43:04;;;;;;;0.50;0.50;;;21.40;50.10;;;;;;5046027;28;46223;-65
2023/04/17 13:45:30;;;;;;;0.50;0.50;;;21.40;50.10;;;;;;5026367;28;45028;-64
2023/04/17 13:47:55;;;;;;;1.00;0.63;;;21.40;50.20;;;;;;5030281;28;45293;-64
2023/04/17 13:50:21;;;;;;;0.85;0.65;;;21.30;50.10;;;;;;5019733;28;45314;-64
2023/04/17 13:52:47;;;;;;;0.95;0.70;;;21.40;50.20;;;;;;5013531;28;46195;-63
2023/04/17 13:55:13;;;;;;;2.88;0.70;;;21.30;50.20;;;;;;5049981;28;45383;-65
2023/04/17 13:57:39;;;;;;;1.70;0.60;;;21.30;50.20;;;;;;5050015;28;45241;-63
2023/04/17 14:00:09;;;;;;;0.70;0.70;;;21.30;50.20;;;;;;5046067;28;45258;-65
2023/04/17 14:02:35;;;;;;;0.95;0.60;;;21.30;50.20;;;;;;5007027;28;45728;-63
2023/04/17 14:05:00;;;;;;;1.30;0.70;;;21.30;50.20;;;;;;5052512;28;45214;-64
2023/04/17 14:07:26;;;;;;;0.55;0.55;;;21.30;50.30;;;;;;5051190;28;45269;-63
2023/04/17 14:09:52;;;;;;;0.68;0.50;;;21.30;50.30;;;;;;5034815;28;45542;-64
2023/04/17 14:12:19;;;;;;;1.17;0.60;;;21.30;50.40;;;;;;5016937;28;45268;-63
2023/04/17 14:14:45;;;;;;;1.38;0.50;;;21.20;50.30;;;;;;5020869;28;44752;-63
2023/04/17 14:17:13;;;;;;;2.63;0.70;;;21.20;50.30;;;;;;5045111;28;44787;-65
2023/04/17 14:19:39;;;;;;;1.40;0.60;;;21.20;50.40;;;;;;5026357;28;45209;-64
2023/04/17 14:22:04;;;;;;;1.00;0.65;;;21.20;50.50;;;;;;5046241;28;46055;-63
2023/04/17 14:24:30;;;;;;;0.57;0.55;;;21.20;50.50;;;;;;5031331;28;45497;-64
2023/04/17 14:26:56;;;;;;;0.47;0.47;;;21.10;50.50;;;;;;5032637;28;45323;-63
2023/04/17 14:29:22;;;;;;;0.85;0.52;;;21.20;50.60;;;;;;5024399;28;45445;-64
2023/04/17 14:31:47;;;;;;;0.43;0.43;;;21.20;50.50;;;;;;5025032;28;46116;-64
2023/04/17 14:34:13;;;;;;;0.50;0.50;;;21.20;50.60;;;;;;5035017;28;45167;-64
2023/04/17 14:36:38;;;;;;;0.85;0.70;;;21.20;50.60;;;;;;5031653;28;45902;-63
2023/04/17 14:39:04;;;;;;;2.35;0.68;;;21.10;50.60;;;;;;5037334;28;44688;-64
2023/04/17 14:41:32;;;;;;;2.03;0.70;;;21.10;50.60;;;;;;5049291;28;45241;-63
2023/04/17 14:43:58;;;;;;;2.70;0.70;;;21.10;50.60;;;;;;5052286;28;45215;-65
2023/04/17 14:46:24;;;;;;;1.02;0.50;;;21.10;50.70;;;;;;5043749;28;45442;-64
2023/04/17 14:48:49;;;;;;;;;;;21.20;50.60;;;;;;5046128;28;45544;-65
2023/04/17 14:51:15;;;;;;;0.47;0.47;;;21.10;50.70;;;;;;5026472;28;46812;-64
2023/04/17 14:53:40;;;;;;;2.95;0.60;;;21.10;50.60;;;;;;5032837;28;45187;-63
2023/04/17 14:56:06;;;;;;;0.50;0.50;;;21.10;50.60;;;;;;5045908;28;45451;-63
2023/04/17 14:58:32;;;;;;;0.57;0.50;;;21.10;50.60;;;;;;5055619;28;45033;-65
2023/04/17 15:00:58;;;;;;;1.98;0.57;;;21.10;50.70;;;;;;5027566;28;45568;-64
2023/04/17 15:03:23;;;;;;;2.38;0.73;;;21.10;50.70;;;;;;5031464;28;45091;-63
2023/04/17 15:05:51;;;;;;;1.15;0.65;;;21.00;50.70;;;;;;5029216;28;45529;-63
2023/04/17 15:08:16;;;;;;;0.77;0.60;;;21.00;50.80;;;;;;5053643;28;45278;-64
2023/04/17 15:10:42;;;;;;;0.55;0.55;;;21.00;50.80;;;;;;5011640;28;45472;-64
2023/04/17 15:13:07;;;;;;;1.02;0.52;;;21.00;50.80;;;;;;5033312;28;45049;-65
2023/04/17 15:15:33;;;;;;;0.73;0.65;;;21.00;50.90;;;;;;5020710;28;44747;-65
2023/04/17 15:17:59;;;;;;;1.52;0.60;;;21.00;50.90;;;;;;5045573;28;45866;-62
2023/04/17 15:20:24;;;;;;;3.25;0.77;;;21.00;50.90;;;;;;5047498;28;45181;-63
2023/04/17 15:22:51;;;;;;;0.52;0.50;;;20.90;50.90;;;;;;5027244;28;46509;-62
2023/04/17 15:25:18;;;;;;;1.35;0.70;;;20.90;50.90;;;;;;5029639;28;45537;-62
2023/04/17 15:27:44;;;;;;;0.80;0.60;;;20.90;51.00;;;;;;5049347;28;46131;-62
2023/04/17 15:30:10;;;;;;;0.60;0.50;;;20.90;51.00;;;;;;5045559;28;45137;-63
2023/04/17 15:32:36;;;;;;;0.50;0.50;;;20.90;51.10;;;;;;5012200;28;45535;-63
2023/04/17 15:35:05;;;;;;;0.50;0.40;;;20.80;51.10;;;;;;5056146;28;45379;-63
2023/04/17 15:37:30;;;;;;;2.33;0.57;;;20.80;51.20;;;;;;4988106;28;45485;-62
2023/04/17 15:39:56;;;;;;;0.70;0.50;;;20.80;51.20;;;;;;5052001;28;46031;-63
2023/04/17 15:42:21;;;;;;;0.98;0.68;;;20.80;51.20;;;;;;5049671;28;44871;-61
2023/04/17 15:44:47;;;;;;;0.52;0.43;;;20.80;51.30;;;;;;5050185;28;44652;-61
2023/04/17 15:47:13;;;;;;;0.50;0.50;;;20.70;51.20;;;;;;5020868;28;45185;-61
2023/04/17 15:49:39;;;;;;;2.42;0.65;;;20.80;51.30;;;;;;5045390;28;45346;-62
2023/04/17 15:52:05;;;;;;;0.60;0.60;;;20.70;51.30;;;;;;5030682;28;44655;-62
2023/04/17 15:54:31;;;;;;;1.38;0.70;;;20.70;51.30;;;;;;5031528;28;45372;-61
2023/04/17 15:56:56;;;;;;;0.60;0.60;;;20.70;51.40;;;;;;5046986;28;44755;-63
2023/04/17 15:59:22;;;;;;;0.65;0.60;;;20.60;51.30;;;;;;5025250;28;46086;-62
2023/04/17 16:01:47;;;;;;;0.63;0.63;;;20.60;51.40;;;;;;5038584;28;46580;-62
2023/04/17 16:04:13;;;;;;;0.50;0.50;;;20.60;51.40;;;;;;5026531;28;45225;-62
2023/04/17 16:06:39;;;;;;;0.40;0.40;;;20.60;51.40;;;;;;5041669;28;45494;-62
2023/04/17 16:09:05;;;;;;;0.98;0.77;;;20.60;51.40;;;;;;5027072;28;46232;-62
2023/04/17 16:11:30;;;;;;;3.55;0.57;;;20.60;51.50;;;;;;5045009;28;45371;-61
2023/04/17 16:13:56;;;;;;;3.22;0.80;;;20.60;51.50;;;;;;5029329;28;45470;-61
2023/04/17 16:16:21;;;;;;;2.38;0.55;;;20.50;51.50;;;;;;5039851;28;45281;-62
2023/04/17 16:18:47;;;;;;;1.00;0.70;;;20.50;51.50;;;;;;5029110;28;45875;-60